Time;durP1;ratioP1;P1;durP2;ratioP2;P2;SDS_P1;SDS_P2;PMS_P1;PMS_P2;Temp;Humidity;BMP_temperature;BMP_pressure;BME280_temperature;BME280_humidity;BME280_pressure;Samples;Min_cycle;Max_cycle;Signal;HPM_P1;HPM_P2
2022/07/24 00:02:06;;;;;;;18.73;17.07;;;23.90;93.00;;;;;;5042927;28;20438;-86
2022/07/24 00:04:33;;;;;;;19.93;17.90;;;23.90;93.30;;;;;;5042819;28;20859;-85
2022/07/24 00:06:59;;;;;;;20.13;18.57;;;23.90;93.40;;;;;;5043580;28;20438;-85
2022/07/24 00:09:26;;;;;;;18.87;17.43;;;23.80;93.50;;;;;;5041465;28;20786;-86
2022/07/24 00:11:54;;;;;;;18.27;16.87;;;23.80;93.80;;;;;;5042728;28;20438;-86
2022/07/24 00:14:21;;;;;;;20.03;18.30;;;23.80;94.20;;;;;;5040633;28;20449;-85
2022/07/24 00:16:48;;;;;;;20.03;18.13;;;23.70;94.30;;;;;;5041773;28;20506;-85
2022/07/24 00:19:14;;;;;;;20.00;18.50;;;23.60;94.60;;;;;;5040317;28;20473;-86
2022/07/24 00:21:41;;;;;;;19.43;17.63;;;23.60;95.00;;;;;;5040170;28;20445;-86
2022/07/24 00:24:08;;;;;;;18.97;17.20;;;23.50;95.30;;;;;;5039291;28;20480;-86
2022/07/24 00:26:35;;;;;;;18.67;17.23;;;23.50;95.70;;;;;;5043490;28;20826;-86
2022/07/24 00:29:04;;;;;;;17.63;16.23;;;23.50;95.90;;;;;;5044012;28;20468;-86
2022/07/24 00:31:30;;;;;;;19.83;18.00;;;23.40;96.20;;;;;;5054593;28;20468;-86
2022/07/24 00:33:57;;;;;;;19.93;18.27;;;23.30;96.60;;;;;;5057875;28;20536;-86
2022/07/24 00:36:24;;;;;;;20.77;18.83;;;23.30;97.00;;;;;;5046753;28;20449;-85
2022/07/24 00:38:50;;;;;;;19.13;17.53;;;23.20;97.30;;;;;;5045954;28;20448;-85
2022/07/24 00:41:17;;;;;;;20.93;19.23;;;23.20;97.70;;;;;;5052161;28;20418;-84
2022/07/24 00:44:04;;;;;;;20.23;18.53;;;23.10;98.20;;;;;;5058422;28;20441;-85
2022/07/24 00:46:31;;;;;;;20.10;18.53;;;23.10;98.40;;;;;;5066507;28;20429;-85
2022/07/24 00:48:58;;;;;;;21.13;19.53;;;23.10;98.70;;;;;;5066331;28;20877;-85
2022/07/24 00:51:25;;;;;;;19.70;18.00;;;23.20;98.80;;;;;;5055835;28;20437;-85
2022/07/24 00:53:52;;;;;;;20.37;18.67;;;23.10;99.00;;;;;;5059788;28;20444;-86
2022/07/24 00:56:19;;;;;;;19.60;17.90;;;23.10;99.30;;;;;;5057999;28;20452;-85
2022/07/24 00:58:46;;;;;;;21.17;19.37;;;23.10;99.60;;;;;;5055797;28;20452;-85
2022/07/24 01:01:15;;;;;;;21.50;19.70;;;23.00;99.90;;;;;;5068831;28;20445;-85
2022/07/24 01:03:42;;;;;;;20.50;18.90;;;23.00;99.90;;;;;;5076611;28;20444;-85
2022/07/24 01:06:09;;;;;;;20.97;19.20;;;23.00;99.90;;;;;;5057994;28;20816;-85
2022/07/24 01:08:36;;;;;;;22.60;20.70;;;23.00;99.90;;;;;;5058531;28;20479;-86
2022/07/24 01:11:03;;;;;;;21.73;19.73;;;22.90;99.90;;;;;;5058697;28;20444;-85
2022/07/24 01:13:30;;;;;;;21.80;20.00;;;22.90;99.90;;;;;;5059108;28;20514;-85
2022/07/24 01:15:57;;;;;;;20.30;18.63;;;22.80;99.90;;;;;;5058854;28;20448;-86
2022/07/24 01:18:25;;;;;;;19.70;18.13;;;22.90;99.90;;;;;;5056180;28;20445;-85
2022/07/24 01:20:55;;;;;;;20.47;18.77;;;23.00;99.90;;;;;;5055412;28;20530;-85
2022/07/24 01:23:22;;;;;;;20.20;18.30;;;23.00;99.90;;;;;;5055284;28;20475;-85
2022/07/24 01:25:48;;;;;;;22.10;20.33;;;22.80;99.90;;;;;;5056808;28;20476;-84
2022/07/24 01:28:15;;;;;;;21.10;19.40;;;22.80;99.90;;;;;;5056051;28;20452;-84
2022/07/24 01:30:42;;;;;;;22.80;21.00;;;22.80;99.90;;;;;;5056022;28;20464;-84
2022/07/24 01:33:09;;;;;;;21.00;19.20;;;22.80;99.90;;;;;;5058979;28;20448;-86
2022/07/24 01:35:36;;;;;;;20.50;18.90;;;22.70;99.90;;;;;;5062969;28;20440;-86
2022/07/24 01:38:04;;;;;;;21.53;19.67;;;22.70;99.90;;;;;;5059834;28;20455;-86
2022/07/24 01:40:31;;;;;;;21.60;19.80;;;22.70;99.90;;;;;;5057255;28;20476;-85
2022/07/24 01:42:57;;;;;;;21.33;19.20;;;22.50;99.90;;;;;;5057299;28;20436;-86
2022/07/24 01:45:24;;;;;;;22.10;20.37;;;22.60;99.90;;;;;;5055190;28;20511;-86
2022/07/24 01:47:51;;;;;;;19.50;17.90;;;22.60;99.90;;;;;;5054860;28;20865;-86
2022/07/24 01:50:17;;;;;;;21.83;20.10;;;22.50;99.90;;;;;;5055023;28;20465;-86
2022/07/24 01:52:44;;;;;;;21.20;19.43;;;22.50;99.90;;;;;;5071218;28;20449;-85
2022/07/24 01:55:12;;;;;;;20.17;18.17;;;22.40;99.90;;;;;;5065863;28;20440;-86
2022/07/24 01:57:39;;;;;;;19.47;17.97;;;22.40;99.90;;;;;;5057020;28;20463;-86
2022/07/24 02:00:11;;;;;;;22.17;20.17;;;22.40;99.90;;;;;;5056888;28;20468;-86
2022/07/24 02:02:38;;;;;;;21.20;19.40;;;22.20;99.90;;;;;;5056610;28;20934;-85
2022/07/24 02:05:05;;;;;;;18.50;17.10;;;22.20;99.90;;;;;;5056275;28;20480;-86
2022/07/24 02:07:32;;;;;;;20.23;18.43;;;22.20;99.90;;;;;;5056003;28;20433;-86
2022/07/24 02:09:58;;;;;;;20.30;18.60;;;22.20;99.90;;;;;;5056985;28;20540;-86
2022/07/24 02:12:26;;;;;;;19.77;18.13;;;22.20;99.90;;;;;;5076350;28;20440;-85
2022/07/24 02:14:53;;;;;;;23.20;21.20;;;22.10;99.90;;;;;;5073931;28;20453;-86
2022/07/24 02:17:20;;;;;;;20.70;18.90;;;22.10;99.90;;;;;;5057464;28;20847;-86
2022/07/24 02:19:46;;;;;;;21.07;19.27;;;22.00;99.90;;;;;;5066638;22;20551;-82
2022/07/24 02:22:13;;;;;;;22.47;20.57;;;22.00;99.90;;;;;;5041619;28;20425;-83
2022/07/24 02:24:40;;;;;;;21.27;19.37;;;21.90;99.90;;;;;;5042226;28;20485;-82
2022/07/24 02:27:07;;;;;;;20.80;19.00;;;21.90;99.90;;;;;;5040000;28;20505;-81
2022/07/24 02:29:35;;;;;;;22.20;20.30;;;21.90;99.90;;;;;;5048160;28;20473;-82
2022/07/24 02:32:01;;;;;;;20.43;18.63;;;21.80;99.90;;;;;;5044570;28;20442;-83
2022/07/24 02:34:28;;;;;;;20.97;19.30;;;21.80;99.90;;;;;;5039070;28;20465;-83
2022/07/24 02:36:54;;;;;;;20.40;18.70;;;21.70;99.90;;;;;;5039060;28;20445;-83
2022/07/24 02:39:21;;;;;;;22.37;20.57;;;21.70;99.90;;;;;;5039650;28;21174;-83
2022/07/24 02:41:48;;;;;;;20.90;19.20;;;21.60;99.90;;;;;;5053077;28;20446;-83
2022/07/24 02:44:16;;;;;;;20.40;18.60;;;21.60;99.90;;;;;;5053637;28;20429;-83
2022/07/24 02:46:44;;;;;;;20.60;18.40;;;21.70;99.90;;;;;;5041601;28;20948;-82
2022/07/24 02:49:11;;;;;;;22.60;20.80;;;21.60;99.90;;;;;;5039462;28;20478;-83
2022/07/24 02:51:38;;;;;;;23.07;20.77;;;21.60;99.90;;;;;;5040104;28;20519;-82
2022/07/24 02:54:05;;;;;;;21.20;19.23;;;21.50;99.90;;;;;;5039329;28;20561;-82
2022/07/24 02:56:31;;;;;;;20.17;18.50;;;21.50;99.90;;;;;;5038688;28;20484;-82
2022/07/24 02:58:58;;;;;;;22.73;20.70;;;21.40;99.90;;;;;;5039373;28;20445;-83
2022/07/24 03:01:26;;;;;;;21.10;19.40;;;21.40;99.90;;;;;;5038305;28;20466;-82
2022/07/24 03:03:54;;;;;;;21.60;19.90;;;21.40;99.90;;;;;;5057499;28;20464;-80
2022/07/24 03:06:20;;;;;;;22.20;20.10;;;21.30;99.90;;;;;;5050558;28;20453;-80
2022/07/24 03:08:47;;;;;;;21.33;19.60;;;21.40;99.90;;;;;;5040329;28;20449;-80
2022/07/24 03:11:14;;;;;;;20.53;18.90;;;21.40;99.90;;;;;;5040437;28;20476;-81
2022/07/24 03:13:40;;;;;;;22.40;20.27;;;21.30;99.90;;;;;;5040347;28;20445;-81
2022/07/24 03:16:07;;;;;;;22.40;20.50;;;21.30;99.90;;;;;;5039151;28;20481;-81
2022/07/24 03:18:34;;;;;;;21.63;19.93;;;21.30;99.90;;;;;;5040479;28;20474;-81
2022/07/24 03:21:02;;;;;;;22.17;20.23;;;21.30;99.90;;;;;;5040329;28;20482;-81
2022/07/24 03:23:29;;;;;;;23.60;21.70;;;21.20;99.90;;;;;;5038960;28;20449;-82
2022/07/24 03:25:56;;;;;;;22.87;20.77;;;21.20;99.90;;;;;;5038964;28;20798;-81
2022/07/24 03:28:22;;;;;;;20.97;19.27;;;21.20;99.90;;;;;;5037402;28;20456;-81
2022/07/24 03:30:49;;;;;;;24.23;22.13;;;21.20;99.90;;;;;;5038105;28;20474;-82
2022/07/24 03:33:16;;;;;;;22.70;20.80;;;21.20;99.90;;;;;;5038023;28;20942;-82
2022/07/24 03:35:42;;;;;;;21.73;20.03;;;21.10;99.90;;;;;;5038848;28;21038;-82
2022/07/24 03:38:10;;;;;;;22.47;20.40;;;21.10;99.90;;;;;;5037305;28;20446;-82
2022/07/24 03:40:37;;;;;;;22.23;20.43;;;21.10;99.90;;;;;;5037267;28;20524;-82
2022/07/24 03:43:04;;;;;;;22.67;20.87;;;21.10;99.90;;;;;;5038657;28;20454;-82
2022/07/24 03:45:30;;;;;;;23.40;21.50;;;21.10;99.90;;;;;;5038287;28;20461;-82
2022/07/24 03:47:57;;;;;;;22.47;20.50;;;21.10;99.90;;;;;;5043594;28;20497;-82
2022/07/24 03:50:24;;;;;;;20.93;19.17;;;21.00;99.90;;;;;;5053477;28;20479;-83
2022/07/24 03:52:51;;;;;;;22.20;20.20;;;21.00;99.90;;;;;;5048596;28;20480;-83
2022/07/24 03:55:19;;;;;;;20.07;18.47;;;21.10;99.90;;;;;;5052879;28;20473;-82
2022/07/24 03:57:46;;;;;;;21.57;19.80;;;21.00;99.90;;;;;;5047033;28;20441;-83
2022/07/24 04:00:13;;;;;;;22.73;20.67;;;21.00;99.90;;;;;;5043991;28;20465;-83
2022/07/24 04:02:40;;;;;;;22.33;20.53;;;21.00;99.90;;;;;;5044847;28;20442;-83
2022/07/24 04:05:08;;;;;;;22.27;20.37;;;21.00;99.90;;;;;;5039873;28;20449;-83
2022/07/24 04:07:35;;;;;;;20.73;18.93;;;21.00;99.90;;;;;;5038785;28;20509;-82
2022/07/24 04:10:03;;;;;;;22.00;20.23;;;21.00;99.90;;;;;;5039221;28;20469;-83
2022/07/24 04:12:32;;;;;;;22.90;20.97;;;21.00;99.90;;;;;;5037473;28;20457;-82
2022/07/24 04:14:58;;;;;;;21.00;19.27;;;20.90;99.90;;;;;;5054403;28;20442;-83
2022/07/24 04:17:25;;;;;;;22.40;20.53;;;20.90;99.90;;;;;;5049558;28;20449;-83
2022/07/24 04:19:52;;;;;;;22.27;20.47;;;21.00;99.90;;;;;;5043752;28;20519;-83
2022/07/24 04:22:18;;;;;;;21.33;19.60;;;21.00;99.90;;;;;;5040026;28;20567;-83
2022/07/24 04:24:45;;;;;;;22.10;20.30;;;20.90;99.90;;;;;;5040517;28;20499;-82
2022/07/24 04:27:12;;;;;;;22.03;20.10;;;20.90;99.90;;;;;;5038338;28;20441;-83
2022/07/24 04:29:40;;;;;;;22.43;20.63;;;21.00;99.90;;;;;;5050514;28;20473;-82
2022/07/24 04:32:07;;;;;;;23.17;21.13;;;20.90;99.90;;;;;;5041730;28;20942;-82
2022/07/24 04:34:34;;;;;;;23.10;21.20;;;21.00;99.90;;;;;;5037882;28;20855;-82
2022/07/24 04:37:00;;;;;;;22.67;20.83;;;21.00;99.90;;;;;;5037549;28;20484;-82
2022/07/24 04:39:27;;;;;;;21.80;19.90;;;21.00;99.90;;;;;;5036695;28;20445;-82
2022/07/24 04:41:53;;;;;;;20.40;18.80;;;21.00;99.90;;;;;;5038030;28;20461;-83
2022/07/24 04:44:20;;;;;;;23.07;21.10;;;21.00;99.90;;;;;;5036305;28;20445;-83
2022/07/24 04:46:48;;;;;;;22.33;20.43;;;21.00;99.90;;;;;;5036504;28;20450;-83
2022/07/24 04:49:15;;;;;;;23.00;21.10;;;21.10;99.90;;;;;;5037191;28;20504;-83
2022/07/24 04:51:41;;;;;;;22.70;20.90;;;21.10;99.90;;;;;;5037723;28;20449;-83
2022/07/24 04:54:08;;;;;;;22.40;20.50;;;21.10;99.90;;;;;;5036823;28;20450;-83
2022/07/24 04:56:35;;;;;;;21.40;19.73;;;21.10;99.90;;;;;;5036788;28;20489;-82
2022/07/24 04:59:02;;;;;;;21.87;20.07;;;21.10;99.90;;;;;;5036428;28;21065;-82
2022/07/24 05:01:29;;;;;;;22.83;20.83;;;21.20;99.90;;;;;;5037732;28;20508;-82
2022/07/24 05:03:58;;;;;;;23.23;21.33;;;21.10;99.90;;;;;;5036412;28;20876;-82
2022/07/24 05:06:25;;;;;;;21.70;19.87;;;21.20;99.90;;;;;;5036688;28;20480;-82
2022/07/24 05:08:52;;;;;;;22.37;20.70;;;21.20;99.90;;;;;;5038178;28;20457;-82
2022/07/24 05:11:18;;;;;;;22.40;20.33;;;21.20;99.90;;;;;;5036520;28;20469;-82
2022/07/24 05:13:45;;;;;;;21.70;19.90;;;21.30;99.90;;;;;;5038655;28;20445;-83
2022/07/24 05:16:12;;;;;;;21.17;19.37;;;21.40;99.90;;;;;;5040889;28;20532;-82
2022/07/24 05:18:38;;;;;;;22.60;20.60;;;21.60;99.90;;;;;;5041918;28;20548;-83
2022/07/24 05:21:07;;;;;;;21.03;19.43;;;22.00;99.90;;;;;;5044855;28;20495;-83
2022/07/24 05:23:34;;;;;;;19.33;17.83;;;22.40;99.90;;;;;;5059003;28;20430;-83
2022/07/24 05:26:00;;;;;;;19.83;18.30;;;22.80;99.90;;;;;;5049661;28;20456;-83
2022/07/24 05:28:27;;;;;;;19.63;18.03;;;23.00;99.90;;;;;;5041838;28;20452;-83
2022/07/24 05:30:54;;;;;;;20.23;18.37;;;23.30;99.90;;;;;;5039378;28;20468;-81
2022/07/24 05:33:21;;;;;;;18.70;17.23;;;23.60;99.90;;;;;;5038869;28;20468;-83
2022/07/24 05:35:47;;;;;;;18.30;16.90;;;24.00;99.90;;;;;;5039783;28;20477;-82
2022/07/24 05:38:15;;;;;;;17.60;16.13;;;24.40;99.90;;;;;;5038420;28;20449;-83
2022/07/24 05:40:42;;;;;;;19.80;18.20;;;24.80;99.90;;;;;;5045315;28;20465;-83
2022/07/24 05:43:09;;;;;;;19.67;18.07;;;25.10;99.90;;;;;;5052561;28;20491;-83
2022/07/24 05:45:35;;;;;;;18.40;17.00;;;25.40;99.80;;;;;;5039206;28;20444;-83
2022/07/24 05:48:02;;;;;;;17.53;16.20;;;25.50;98.50;;;;;;5038328;28;20477;-83
2022/07/24 05:50:29;;;;;;;17.17;15.90;;;25.80;97.90;;;;;;5043623;28;20475;-82
2022/07/24 05:52:55;;;;;;;17.20;15.60;;;25.90;97.20;;;;;;5039150;28;20448;-84
2022/07/24 05:55:24;;;;;;;18.40;16.90;;;26.10;96.30;;;;;;5039825;28;20961;-82
2022/07/24 05:57:50;;;;;;;18.03;16.70;;;26.00;96.50;;;;;;5037331;28;20946;-83
2022/07/24 06:00:18;;;;;;;19.07;17.30;;;26.30;95.80;;;;;;5035297;28;20980;-82
2022/07/24 06:02:46;;;;;;;18.37;16.97;;;26.40;95.10;;;;;;5038472;28;20510;-83
2022/07/24 06:05:13;;;;;;;17.60;16.40;;;26.50;94.20;;;;;;5046402;28;20539;-82
2022/07/24 06:07:40;;;;;;;17.60;16.17;;;26.30;94.50;;;;;;5036935;28;20881;-82
2022/07/24 06:10:08;;;;;;;18.33;16.93;;;26.50;94.50;;;;;;5037097;28;20470;-83
2022/07/24 06:12:36;;;;;;;19.00;17.40;;;27.10;93.50;;;;;;5034996;28;20441;-83
2022/07/24 06:15:03;;;;;;;17.03;15.70;;;27.60;91.90;;;;;;5034586;28;20449;-83
2022/07/24 06:17:30;;;;;;;16.70;15.30;;;28.00;90.90;;;;;;5034268;28;20481;-83
2022/07/24 06:19:57;;;;;;;17.80;16.50;;;28.50;90.00;;;;;;5034054;28;20848;-82
2022/07/24 06:22:23;;;;;;;16.00;14.80;;;28.80;87.10;;;;;;5039159;28;20460;-83
2022/07/24 06:24:50;;;;;;;15.70;14.17;;;29.30;84.60;;;;;;5044458;28;20551;-83
2022/07/24 06:27:17;;;;;;;15.83;14.73;;;29.60;81.80;;;;;;5054465;28;20444;-83
2022/07/24 06:29:45;;;;;;;16.43;15.03;;;29.90;80.30;;;;;;5034586;28;20473;-83
2022/07/24 06:32:12;;;;;;;16.07;14.77;;;29.50;79.60;;;;;;5035507;28;20547;-82
2022/07/24 06:34:39;;;;;;;18.10;15.70;;;29.20;80.90;;;;;;5041452;28;20434;-83
2022/07/24 06:37:05;;;;;;;16.23;14.93;;;29.30;81.20;;;;;;5057556;28;20528;-83
2022/07/24 06:39:32;;;;;;;15.77;14.53;;;29.40;79.70;;;;;;5041093;28;21131;-82
2022/07/24 06:41:59;;;;;;;16.63;15.40;;;29.50;80.40;;;;;;5035823;28;20449;-84
2022/07/24 06:44:26;;;;;;;16.00;14.70;;;29.70;79.90;;;;;;5040407;28;20832;-83
2022/07/24 06:46:54;;;;;;;16.73;15.47;;;30.00;77.00;;;;;;5045989;28;20854;-83
2022/07/24 06:49:21;;;;;;;15.10;14.00;;;30.80;75.10;;;;;;5034711;28;20438;-82
2022/07/24 06:51:48;;;;;;;16.20;14.80;;;30.90;74.00;;;;;;5034296;28;20451;-83
2022/07/24 06:54:15;;;;;;;15.73;14.40;;;31.30;72.30;;;;;;5033748;28;20486;-83
2022/07/24 06:56:41;;;;;;;14.73;13.57;;;31.70;69.80;;;;;;5033706;28;20477;-83
2022/07/24 06:59:08;;;;;;;15.53;14.43;;;32.20;67.90;;;;;;5034797;28;20450;-81
2022/07/24 07:01:35;;;;;;;14.90;13.90;;;32.70;65.70;;;;;;5033467;28;20451;-83
2022/07/24 07:04:03;;;;;;;14.80;13.57;;;33.10;63.30;;;;;;5034551;28;20990;-83
2022/07/24 07:06:30;;;;;;;13.97;12.87;;;32.90;62.40;;;;;;5033285;28;20456;-83
2022/07/24 07:08:56;;;;;;;14.70;13.73;;;33.00;61.60;;;;;;5034228;28;20452;-82
2022/07/24 07:11:23;;;;;;;14.17;13.17;;;33.50;59.50;;;;;;5032992;28;20475;-82
2022/07/24 07:13:50;;;;;;;13.57;12.60;;;32.60;60.80;;;;;;5032982;28;20444;-83
2022/07/24 07:16:16;;;;;;;13.60;12.60;;;33.00;60.10;;;;;;5032604;28;20477;-82
2022/07/24 07:18:43;;;;;;;13.60;12.50;;;33.30;58.70;;;;;;5032703;28;20451;-82
2022/07/24 07:21:11;;;;;;;13.23;12.27;;;33.50;58.20;;;;;;5032128;28;20477;-82
2022/07/24 07:23:38;;;;;;;12.40;11.40;;;34.10;56.60;;;;;;5033134;28;20448;-83
2022/07/24 07:26:05;;;;;;;12.23;11.30;;;34.60;53.70;;;;;;5032559;28;20451;-83
2022/07/24 07:28:31;;;;;;;12.73;11.73;;;34.40;53.50;;;;;;5032957;28;20460;-83
2022/07/24 07:30:58;;;;;;;11.23;10.43;;;34.30;53.60;;;;;;5032676;28;20473;-83
2022/07/24 07:33:26;;;;;;;11.60;10.80;;;33.80;53.10;;;;;;5033215;28;20801;-83
2022/07/24 07:35:53;;;;;;;12.53;11.73;;;34.10;54.00;;;;;;5041875;28;20451;-83
2022/07/24 07:38:21;;;;;;;12.57;11.57;;;35.10;52.90;;;;;;5052640;28;20862;-83
2022/07/24 07:40:47;;;;;;;11.03;10.20;;;35.40;51.40;;;;;;5034778;28;20475;-83
2022/07/24 07:43:14;;;;;;;11.10;10.40;;;35.10;49.60;;;;;;5034580;28;20447;-83
2022/07/24 07:45:41;;;;;;;16.37;10.40;;;34.10;51.20;;;;;;5050854;28;20446;-83
2022/07/24 07:48:07;;;;;;;10.33;9.50;;;33.70;51.50;;;;;;5047002;28;20441;-83
2022/07/24 07:50:34;;;;;;;10.43;9.57;;;33.50;51.50;;;;;;5041922;28;20463;-84
2022/07/24 07:53:01;;;;;;;9.60;8.90;;;34.10;51.50;;;;;;5046357;28;20433;-83
2022/07/24 07:55:29;;;;;;;9.90;9.20;;;33.90;49.50;;;;;;5043386;28;20437;-83
2022/07/24 07:57:55;;;;;;;10.10;9.40;;;34.10;48.70;;;;;;5039380;28;20476;-83
2022/07/24 08:00:22;;;;;;;10.87;10.03;;;34.70;49.40;;;;;;5035669;28;20571;-84
2022/07/24 08:03:23;;;;;;;9.00;8.10;;;35.90;48.20;;;;;;5038431;28;20441;-92
2022/07/24 08:06:50;;;;;;;9.70;8.97;;;35.60;46.20;;;;;;5048345;28;20463;-91
2022/07/24 08:09:16;;;;;;;10.60;9.67;;;36.50;45.80;;;;;;4997646;28;20529;-90
2022/07/24 08:11:45;;;;;;;9.47;8.87;;;36.60;45.10;;;;;;5035753;28;20444;-90
2022/07/24 08:14:12;;;;;;;10.03;9.27;;;35.10;46.20;;;;;;5031850;28;20472;-91
2022/07/24 08:16:38;;;;;;;9.80;9.00;;;34.80;46.20;;;;;;5032489;28;20480;-92
2022/07/24 08:19:06;;;;;;;8.67;8.07;;;35.90;44.70;;;;;;5032504;28;20907;-91
2022/07/24 08:21:33;;;;;;;9.20;8.50;;;36.00;44.30;;;;;;5028698;28;20474;-91
2022/07/24 08:24:02;;;;;;;9.73;8.93;;;37.10;43.30;;;;;;5041928;28;20498;-89
2022/07/24 08:26:30;;;;;;;10.53;9.53;;;36.90;44.10;;;;;;5042665;28;20488;-86
2022/07/24 08:28:58;;;;;;;9.40;8.60;;;36.60;43.80;;;;;;5032500;28;20450;-85
2022/07/24 08:31:25;;;;;;;8.80;8.20;;;37.40;43.40;;;;;;5032513;28;21082;-87
2022/07/24 08:33:52;;;;;;;10.03;9.23;;;37.60;42.00;;;;;;5031025;28;20442;-87
2022/07/24 08:36:21;;;;;;;8.80;8.20;;;37.30;41.90;;;;;;5034386;28;20446;-89
2022/07/24 08:38:48;;;;;;;10.07;9.07;;;38.60;41.60;;;;;;5040097;28;20470;-88
2022/07/24 08:41:15;;;;;;;9.47;8.77;;;38.90;40.30;;;;;;5036285;28;20532;-86
2022/07/24 08:43:42;;;;;;;9.17;8.50;;;39.30;39.70;;;;;;5035820;28;20445;-87
2022/07/24 08:46:11;;;;;;;10.57;9.70;;;39.90;38.40;;;;;;5035653;28;20442;-88
2022/07/24 08:48:44;;;;;;;9.23;8.43;;;41.00;37.80;;;;;;5037816;28;20485;-88
2022/07/24 08:51:14;;;;;;;8.90;8.20;;;40.60;36.90;;;;;;5036615;28;20462;-87
2022/07/24 08:53:41;;;;;;;9.27;8.57;;;41.50;36.80;;;;;;5035827;28;20966;-88
2022/07/24 08:56:08;;;;;;;9.20;8.60;;;42.00;35.70;;;;;;5035070;28;20923;-88
2022/07/24 08:58:37;;;;;;;9.53;8.67;;;41.20;35.90;;;;;;5034815;28;20453;-88
2022/07/24 09:01:04;;;;;;;9.47;8.77;;;40.60;37.10;;;;;;5034172;28;20553;-87
2022/07/24 09:03:41;;;;;;;9.17;8.57;;;40.20;36.90;;;;;;5032218;28;20804;-87
2022/07/24 09:06:09;;;;;;;9.53;8.90;;;40.00;36.50;;;;;;5032859;28;20454;-87
2022/07/24 09:08:36;;;;;;;9.00;8.30;;;39.30;37.90;;;;;;5034173;28;20508;-87
2022/07/24 09:11:05;;;;;;;9.83;9.10;;;40.10;37.00;;;;;;5058710;28;20454;-87
2022/07/24 09:16:22;;;;;;;10.20;9.47;;;41.70;35.10;;;;;;5033117;28;20435;-87
2022/07/24 09:18:51;;;;;;;9.27;8.70;;;41.80;34.70;;;;;;5033526;28;20492;-90
2022/07/24 09:21:19;;;;;;;9.33;8.63;;;42.20;34.30;;;;;;5034689;28;20469;-90
2022/07/24 09:23:48;;;;;;;9.50;8.90;;;43.00;33.40;;;;;;5035576;28;20484;-90
2022/07/24 09:26:15;;;;;;;8.77;8.17;;;43.80;32.00;;;;;;5036832;28;20860;-88
2022/07/24 09:28:50;;;;;;;7.67;7.07;;;45.00;30.90;;;;;;5037122;28;20485;-89
2022/07/24 09:31:17;;;;;;;8.53;7.93;;;45.40;29.90;;;;;;5040239;28;21047;-89
2022/07/24 09:33:43;;;;;;;9.30;8.70;;;46.00;29.30;;;;;;5057065;28;20442;-89
2022/07/24 09:36:16;;;;;;;8.67;7.97;;;45.70;29.20;;;;;;5055762;28;20452;-90
2022/07/24 09:38:49;;;;;;;9.63;9.00;;;45.40;28.80;;;;;;5055796;28;20446;-90
2022/07/24 09:41:21;;;;;;;9.37;8.57;;;45.40;28.90;;;;;;5050859;28;20458;-89
2022/07/24 09:44:15;;;;;;;9.10;8.20;;;46.50;28.50;;;;;;5056156;28;20466;-90
2022/07/24 09:46:48;;;;;;;8.10;7.53;;;47.00;28.20;;;;;;5046434;28;20456;-88
2022/07/24 09:49:25;;;;;;;8.43;7.87;;;47.90;27.20;;;;;;5038023;28;20554;-89
2022/07/24 09:52:10;;;;;;;9.27;8.57;;;47.90;26.40;;;;;;5036413;28;20449;-90
2022/07/24 09:54:39;;;;;;;8.70;8.20;;;47.50;26.40;;;;;;5037441;28;20811;-90
2022/07/24 09:57:21;;;;;;;8.03;7.50;;;46.50;26.90;;;;;;5039125;28;20479;-88
2022/07/24 09:59:50;;;;;;;8.90;8.30;;;45.80;27.70;;;;;;5036603;28;20465;-90
2022/07/24 10:02:19;;;;;;;9.70;9.13;;;45.60;27.90;;;;;;5038090;28;20792;-90
2022/07/24 10:04:47;;;;;;;10.10;9.23;;;43.60;29.20;;;;;;5035634;28;20442;-89
2022/07/24 10:07:17;;;;;;;10.60;9.90;;;42.40;30.50;;;;;;5032905;28;20481;-89
2022/07/24 10:09:47;;;;;;;10.30;9.60;;;39.60;33.10;;;;;;5033379;28;20489;-89
2022/07/24 10:12:16;;;;;;;10.13;9.50;;;36.90;37.60;;;;;;5045721;28;20420;-89
2022/07/24 10:14:46;;;;;;;10.50;9.70;;;36.10;39.70;;;;;;5056912;28;20429;-90
2022/07/24 10:17:15;;;;;;;11.17;10.07;;;35.00;41.00;;;;;;5051090;28;20467;-89
2022/07/24 10:19:45;;;;;;;9.80;9.10;;;35.00;41.80;;;;;;5053166;28;20453;-91
2022/07/24 10:22:16;;;;;;;9.63;8.93;;;35.40;41.30;;;;;;5036105;28;21000;-90
2022/07/24 10:24:57;;;;;;;11.03;10.23;;;35.40;41.60;;;;;;5035017;28;20466;-90
2022/07/24 10:27:27;;;;;;;10.33;9.53;;;35.40;42.00;;;;;;5034353;28;20479;-90
2022/07/24 10:29:55;;;;;;;10.10;9.40;;;35.50;42.00;;;;;;5033078;28;20477;-90
2022/07/24 10:32:23;;;;;;;11.03;10.27;;;35.50;41.90;;;;;;5042815;28;20441;-90
2022/07/24 10:34:59;;;;;;;10.03;9.30;;;35.90;41.80;;;;;;5043759;28;20447;-91
2022/07/24 10:37:32;;;;;;;10.00;9.30;;;37.40;40.10;;;;;;5037570;28;20821;-91
2022/07/24 10:40:09;;;;;;;10.20;9.50;;;40.20;36.80;;;;;;5051627;28;20461;-90
2022/07/24 10:43:11;;;;;;;9.93;9.00;;;41.90;33.60;;;;;;5058149;28;20422;-90
2022/07/24 10:45:39;;;;;;;9.37;8.77;;;43.10;32.10;;;;;;5048349;28;20453;-89
2022/07/24 10:48:26;;;;;;;10.10;9.50;;;44.40;30.00;;;;;;5041749;28;20477;-88
2022/07/24 10:51:06;;;;;;;9.27;8.70;;;44.90;29.40;;;;;;5032622;28;20468;-90
2022/07/24 10:53:47;;;;;;;9.23;8.70;;;46.20;28.80;;;;;;5036778;28;20442;-89
2022/07/24 10:56:23;;;;;;;9.70;9.10;;;46.60;27.50;;;;;;5036149;28;20446;-90
2022/07/24 10:59:01;;;;;;;10.10;9.50;;;45.60;28.20;;;;;;5040738;28;20455;-89
2022/07/24 11:01:34;;;;;;;8.97;8.20;;;45.30;28.30;;;;;;5056136;28;20513;-90
2022/07/24 11:04:01;;;;;;;9.37;8.77;;;45.80;28.40;;;;;;5052985;28;20426;-88
2022/07/24 11:06:43;;;;;;;9.77;9.07;;;46.60;27.20;;;;;;5037868;28;21022;-89
2022/07/24 11:09:10;;;;;;;9.83;9.20;;;46.70;26.80;;;;;;5032592;28;20473;-88
2022/07/24 11:11:42;;;;;;;8.10;7.60;;;46.60;26.80;;;;;;5033304;28;20442;-90
2022/07/24 11:14:11;;;;;;;9.20;8.70;;;46.80;26.70;;;;;;5033300;28;20891;-90
2022/07/24 11:16:38;;;;;;;9.07;8.47;;;47.20;26.40;;;;;;5034000;28;20462;-90
2022/07/24 11:19:29;;;;;;;8.20;7.70;;;47.80;26.00;;;;;;5032631;28;20438;-90
2022/07/24 11:22:10;;;;;;;9.40;8.70;;;47.60;25.90;;;;;;5033398;28;20437;-90
2022/07/24 11:24:42;;;;;;;9.77;9.17;;;47.80;26.20;;;;;;5036536;28;20809;-88
2022/07/24 11:27:16;;;;;;;8.43;7.93;;;48.80;25.10;;;;;;5031502;28;20469;-89
2022/07/24 11:29:44;;;;;;;8.80;8.20;;;49.60;24.70;;;;;;5031908;28;20466;-88
2022/07/24 11:32:17;;;;;;;8.13;7.63;;;49.70;23.90;;;;;;5028476;28;20449;-88
2022/07/24 11:34:45;;;;;;;9.40;8.80;;;48.90;24.30;;;;;;5034017;28;20970;-89
2022/07/24 11:37:12;;;;;;;8.40;7.80;;;48.10;24.80;;;;;;5031655;28;20532;-90
2022/07/24 11:39:40;;;;;;;9.07;8.47;;;47.10;25.60;;;;;;5048249;28;20457;-89
2022/07/24 11:42:08;;;;;;;9.00;8.40;;;45.40;26.30;;;;;;5056997;28;20453;-90
2022/07/24 11:44:37;;;;;;;9.30;8.50;;;43.90;27.70;;;;;;5052912;28;20430;-89
2022/07/24 11:47:13;;;;;;;9.27;8.57;;;43.10;28.90;;;;;;5044523;28;20453;-90
2022/07/24 11:49:41;;;;;;;8.37;7.83;;;42.80;29.30;;;;;;5047811;28;20442;-90
2022/07/24 11:52:09;;;;;;;8.87;8.33;;;44.10;28.70;;;;;;5054876;28;20427;-90
2022/07/24 11:54:35;;;;;;;9.37;8.60;;;43.50;28.10;;;;;;5049423;28;20438;-89
2022/07/24 11:57:02;;;;;;;9.23;8.53;;;43.70;28.10;;;;;;5056283;28;20426;-89
2022/07/24 11:59:31;;;;;;;9.30;8.67;;;43.40;28.50;;;;;;5050079;28;20430;-90
2022/07/24 12:02:04;;;;;;;9.33;8.63;;;44.00;27.90;;;;;;5031259;28;20442;-90
2022/07/24 12:04:33;;;;;;;9.13;8.37;;;45.80;26.90;;;;;;5032876;28;20442;-89
2022/07/24 12:07:00;;;;;;;9.30;8.70;;;45.50;26.60;;;;;;5031587;28;20448;-89
2022/07/24 12:09:27;;;;;;;9.10;8.50;;;44.60;27.10;;;;;;5041361;28;20860;-90
2022/07/24 12:11:54;;;;;;;8.70;8.20;;;44.70;27.40;;;;;;5049459;28;20450;-90
2022/07/24 12:14:24;;;;;;;8.40;7.70;;;43.40;27.90;;;;;;5042300;28;20442;-89
2022/07/24 12:16:58;;;;;;;9.30;8.70;;;42.30;29.10;;;;;;5032840;28;20962;-90
2022/07/24 12:19:25;;;;;;;9.67;9.07;;;42.10;29.50;;;;;;5030597;28;20434;-91
2022/07/24 12:21:54;;;;;;;9.57;8.87;;;43.10;29.00;;;;;;5029143;28;20446;-88
2022/07/24 12:24:21;;;;;;;9.93;9.33;;;44.20;28.40;;;;;;5035758;28;20936;-88
2022/07/24 12:26:50;;;;;;;8.87;8.37;;;45.30;27.40;;;;;;5033329;28;20473;-89
2022/07/24 12:29:17;;;;;;;9.30;8.70;;;46.00;26.80;;;;;;5035626;28;20504;-89
2022/07/24 12:31:44;;;;;;;8.67;8.17;;;46.70;26.10;;;;;;5034894;28;20440;-90
2022/07/24 12:34:11;;;;;;;8.40;7.80;;;47.60;25.30;;;;;;5034894;28;20946;-90
2022/07/24 12:36:37;;;;;;;8.20;7.70;;;47.50;25.20;;;;;;5034955;28;20450;-90
2022/07/24 12:39:06;;;;;;;8.47;7.97;;;48.20;24.50;;;;;;5035381;28;20923;-90
2022/07/24 12:41:41;;;;;;;8.57;8.00;;;48.30;24.50;;;;;;5044129;28;20458;-89
2022/07/24 12:44:07;;;;;;;8.80;8.20;;;48.40;24.30;;;;;;5041666;28;20437;-90